Aeroporto :
LOGIN :

Iscrizione | Disclaimer

   EN    FR    IT 

 










Sommario :    VFR   VFR Marginale   IFR   IFR Intensivo   IFR Molto Intensivo
Visibilità : 
Base nubi : 
>= 8 km
>= 3000ft
5 / 8 km
1000 / 3000 ft
1500m / 5 km
500 / 1000 ft
800 / 1500m
200 / 500 ft
< 800m
< 200 ft
Simboli :   Temporali  Nebbia  Neve Forte  Precipitazioni Forti  Vento > 20 kt
SIGMETs :   Varie  Temporali  Ghiacco  Turbolenza  Onda orograficha  Ceneri Vulcaniche






- Altitudine del aeroporto : 0 ft


ETEB - Ansbach Army Heliport

ULTIMO METAR :
  • 180502Z AUTO 21011KT 9999 SCT015 BKN021 BKN029 04/04 A3022 RMK AO2 RAE02 SLP263 $

METARs OBSOLETI :
  • 180456Z AUTO 22011KT 9999 -RA SCT015 BKN021 BKN029 04/04 A3022 RMK AO2 RAB50 CIG 018V027 SLP263 P0000 T00400040 $
  • 180450Z AUTO 22010KT 9999 -RA SCT018 BKN025 BKN045 04/04 A3022 RMK AO2 RAB50 CIG 020V027 SLP263 $
  • 180426Z AUTO 23013G20KT 9999 BKN020 BKN037 04/04 A3022 RMK AO2 CIG 020V038 BKN020 V SCT SLP263 $
  • 180411Z AUTO 24014KT 9999 FEW028 BKN037 04/04 A3022 RMK AO2 SLP263 $
  • 180356Z AUTO 24013KT 9999 FEW017 SCT022 BKN028 OVC035 04/04 A3022 RMK AO2 CIG 019V028 SLP263 T00420042 $
  • 180256Z AUTO 25012KT 9999 OVC022 05/05 A3020 RMK AO2 OVC V BKN SLP254 T00460045 52010 $

TAF AMD TAF ETEB
Valido dal 18 a 03 ore il 19 a 04 ore UTC


1803/1904 25015KT 9999 FEW020 BKN030 QNH3015INS
TEMPO 1803/1807 25015G25KT
BECMG 1807/1808 25015G25KT 9999 FEW030 QNH3030INS
BECMG 1816/1817 23009KT 9999 FEW035 FEW080 QNH3026INS
BECMG 1901/1902 22012KT 9999 BKN030 QNH3016INS TX06/1814Z TN02/1822Z



MetMap, La meteo Aeronautica in un colpo d'occhio ! - Copyright ORBIFLY Dicembre 2007 - Disclaimer

ORBIFLY MET'MAP TEAM :

Programmazione e sviluppo : Alexandra Zaïnal
Concezione : Baudouin d'Aumeries
Aiuto per la programmazione : Marc-Olivier Méhu
Supporto tecnico e logistico : Manuel Goepfert
Aiuto per la traduzione : Arnaldo La Scala

Contatto : metmap@orbifly.com




FONTI E CREDITI :

   NOAA